DW5978 Whyalla SA AU current weather conditions

sailwx.info

Wind from 153 at 1 knots gusting 6

Air temperature 23.9° C
Dewpoint 3.2° C

Last reported at 2014-Sep-21 06:41 UTC.
Time now 2014-Sep-21 08:04 UTC

Location: S 33°01' E 137°32'.
View on Google Maps.

See reports from other nearby stations

  
Tides and Currents Weather Stations Pressure Air Temp Water Temp Dewpoint Dewpoint Depression Visibility Wind Speed Wind Dir Waves Ship Positions
date/time (UTC)wind fromknots sea level pressurealtimeterstation pressurevisibilityair tempwater tempwave heightnotes
2014-Sep-21 06:41 153 1 gusting 6 23.9
2014-Sep-21 06:26 193 4 gusting 6 23.9
2014-Sep-21 06:11 176 3 gusting 6 23.9
2014-Sep-21 05:56 143 3 gusting 6 23.3
2014-Sep-21 05:41 139 3 gusting 8 23.3
2014-Sep-21 05:26 135 3 gusting 8 23.3
2014-Sep-21 05:11 150 4 gusting 9 23.3
2014-Sep-21 04:56 133 5 gusting 11 23.9
2014-Sep-21 04:41 136 5 gusting 10 23.9
2014-Sep-21 04:26 114 6 gusting 12 23.3
2014-Sep-21 04:11 095 6 gusting 10 23.3
2014-Sep-21 03:56 072 7 gusting 13 22.8
2014-Sep-21 03:41 114 4 gusting 12 23.3
2014-Sep-21 03:26 103 3 gusting 11 22.8
2014-Sep-21 03:11 159 3 gusting 6 22.8
2014-Sep-21 02:56 139 3 gusting 6 23.3
2014-Sep-21 02:41 127 3 gusting 6 22.8
2014-Sep-21 02:26 117 4 gusting 7 22.2
2014-Sep-21 02:11 093 4 gusting 7 22.2
2014-Sep-21 01:56 145 3 gusting 6 22.2
2014-Sep-21 01:41 134 4 gusting 7 22.2
2014-Sep-21 01:26 109 3 gusting 7 22.2
2014-Sep-21 01:11 210 1 gusting 2 22.8
2014-Sep-21 00:56 041 3 gusting 6 22.2
2014-Sep-21 00:41 039 3 gusting 5 22.2
2014-Sep-21 00:26 030 2 gusting 6 21.7
2014-Sep-21 00:11 353 0 gusting 6 21.7
2014-Sep-20 23:56 314 21.7
2014-Sep-20 23:41 051 3 gusting 6 21.1
2014-Sep-20 23:26 027 0 gusting 3 20.0
2014-Sep-20 23:10 347 1 gusting 4 18.9
2014-Sep-20 22:55 307 2 gusting 5 18.3
2014-Sep-20 22:40 304 3 gusting 5 17.2
2014-Sep-20 22:25 312 1 gusting 4 16.7
2014-Sep-20 22:10 307 2 gusting 4 15.6
2014-Sep-20 21:55 321 2 gusting 3 13.9
2014-Sep-20 21:40 307 0 gusting 2 10.6
2014-Sep-20 21:25 300 8.3
2014-Sep-20 21:10
2014-Sep-20 20:55
2014-Sep-20 20:40
2014-Sep-20 20:25
2014-Sep-20 20:10
2014-Sep-20 19:55
2014-Sep-20 19:40
2014-Sep-20 19:25
2014-Sep-20 19:09
2014-Sep-20 18:54
2014-Sep-20 18:39
2014-Sep-20 18:24 321 0 gusting 2 8.3
2014-Sep-20 18:09 330 0 gusting 2 8.3
2014-Sep-20 17:54 307 8.3
2014-Sep-20 17:39 308 8.9
2014-Sep-20 17:24 314 0 gusting 1 10.0
2014-Sep-20 17:09 314 0 gusting 2 10.0
2014-Sep-20 16:54 328 0 gusting 3 10.6
2014-Sep-20 16:39 269 0 gusting 2 11.7
2014-Sep-20 16:24 302 12.8
2014-Sep-20 16:09 272 1 gusting 2 13.9
2014-Sep-20 15:54 040 1 gusting 5 15.0
2014-Sep-20 15:39 072 4 gusting 6 15.0
2014-Sep-20 15:24 052 2 gusting 4 14.4
2014-Sep-20 15:09 077 2 gusting 4 13.9
2014-Sep-20 14:54 072 1 gusting 3 15.6
2014-Sep-20 14:39 070 1 gusting 5 16.1
2014-Sep-20 14:24 091 3 gusting 6 16.7
2014-Sep-20 14:09 079 3 gusting 6 16.1
2014-Sep-20 13:54 085 2 gusting 4 16.1
2014-Sep-20 13:39 064 3 gusting 6 16.1
2014-Sep-20 13:23 070 3 gusting 6 16.7
2014-Sep-20 13:08 064 5 gusting 9 17.2
2014-Sep-20 12:53 058 6 gusting 12 17.2
2014-Sep-20 12:38 055 4 gusting 6 16.7
2014-Sep-20 12:23 079 2 gusting 5 16.7
2014-Sep-20 12:08 105 0 gusting 3 16.7
2014-Sep-20 11:53 079 2 gusting 4 17.2
2014-Sep-20 11:38 077 3 gusting 5 17.8
2014-Sep-20 11:23 068 2 gusting 5 17.8
2014-Sep-20 11:08 084 2 gusting 4 17.8
2014-Sep-20 10:53 055 1 gusting 2 17.2
2014-Sep-20 10:38 070 0 gusting 1 17.8
2014-Sep-20 10:23 079 1 gusting 4 17.8
2014-Sep-20 10:08 079 1 gusting 3 18.3
2014-Sep-20 09:53 089 2 gusting 4 18.9
2014-Sep-20 09:38 082 1 gusting 5 19.4
2014-Sep-20 09:23 066 2 gusting 4 19.4
2014-Sep-20 09:08 111 2 gusting 5 20.0
2014-Sep-20 08:53 064 1 gusting 4 20.6
2014-Sep-20 08:38 092 1 gusting 4 21.7
2014-Sep-20 08:23 082 2 gusting 6 22.2
2014-Sep-20 08:08 132 4 gusting 6 22.8
2014-Sep-20 07:53 105 5 gusting 9 22.8
2014-Sep-20 07:38 105 6 gusting 11 22.8
2014-Sep-20 07:23 098 6 gusting 11 23.3
2014-Sep-20 07:09 077 5 gusting 11 23.3
2014-Sep-20 06:53 109 6 gusting 11 23.3
2014-Sep-20 06:38 112 6 gusting 8 23.3
2014-Sep-20 06:23 120 6 gusting 13 23.3
2014-Sep-20 06:08 112 8 gusting 14 23.3
2014-Sep-20 05:53 115 6 gusting 12 23.9
2014-Sep-20 05:38 109 6 gusting 12 23.9
2014-Sep-20 05:23 112 7 gusting 12 23.9
2014-Sep-20 05:08 120 6 gusting 13 23.3
2014-Sep-20 04:53 128 7 gusting 11 23.9
2014-Sep-20 04:38 117 5 gusting 11 24.4
2014-Sep-20 04:23 254 2 gusting 5 25.6
2014-Sep-20 04:09 285 2 gusting 6 25.0
2014-Sep-20 03:53 200 3 gusting 7 24.4
2014-Sep-20 03:37 030 1 gusting 8 23.9
2014-Sep-20 03:22 195 0 gusting 10 23.9
2014-Sep-20 03:07 293 6 gusting 11 24.4
2014-Sep-20 02:52 305 3 gusting 7 24.4
2014-Sep-20 02:37 288 2 gusting 7 23.9
2014-Sep-20 02:22 027 2 gusting 9 23.9
2014-Sep-20 02:07 326 3 gusting 11 23.3
2014-Sep-20 01:52 016 4 gusting 8 23.3
2014-Sep-20 01:37 037 4 gusting 7 23.3
2014-Sep-20 01:22 019 5 gusting 9 22.8
2014-Sep-20 01:07 319 5 gusting 13 22.8
2014-Sep-20 00:52 016 6 gusting 10 22.2
2014-Sep-20 00:37 013 4 gusting 10 21.1
2014-Sep-20 00:22 341 3 gusting 8 21.1
2014-Sep-20 00:07 023 6 gusting 11 20.6
2014-Sep-19 23:52 013 4 gusting 10 20.6
2014-Sep-19 23:37 316 6 gusting 12 20.0
2014-Sep-19 23:22 008 6 gusting 14 19.4
2014-Sep-19 23:07 336 7 gusting 14 19.4
2014-Sep-19 22:37 311 2 gusting 7 16.7
2014-Sep-19 22:22 308 2 gusting 4 15.0
2014-Sep-19 22:07 309 0 gusting 1 13.3
2014-Sep-19 21:51 309 0 gusting 1 12.2
2014-Sep-19 21:36 283 0 gusting 1 10.6
2014-Sep-19 21:21
2014-Sep-19 21:06
2014-Sep-19 20:51
2014-Sep-19 20:36
2014-Sep-19 20:21
2014-Sep-19 20:06
2014-Sep-19 19:51
2014-Sep-19 19:36
2014-Sep-19 19:21
2014-Sep-19 19:06
2014-Sep-19 18:51
2014-Sep-19 18:35 043 8.3
2014-Sep-19 18:20 043 0 gusting 2 7.8
2014-Sep-19 18:05 290 8.3
2014-Sep-19 17:50 291 8.3
2014-Sep-19 17:35 291 0 gusting 1 8.3
2014-Sep-19 17:20 294 0 gusting 3 8.9
2014-Sep-19 17:05 280 1 gusting 3 9.4
2014-Sep-19 16:50 274 2 gusting 3 8.9
2014-Sep-19 16:35 302 1 gusting 2 8.9
2014-Sep-19 16:20 302 1 gusting 2 8.9
2014-Sep-19 16:05 297 1 gusting 2 8.9
2014-Sep-19 15:50 284 1 gusting 3 8.9
2014-Sep-19 15:35 302 0 gusting 2 8.3
2014-Sep-19 15:20 302 1 gusting 3 8.3
2014-Sep-19 15:05 319 1 gusting 2 8.3
2014-Sep-19 14:50 321 0 gusting 1 8.3
2014-Sep-19 14:35 321 0 gusting 1 8.3
2014-Sep-19 14:20 319 9.4
2014-Sep-19 14:05 328 10.0
2014-Sep-19 13:50 328 10.0
2014-Sep-19 13:35 327 10.0
2014-Sep-19 13:20 311 0 gusting 2 10.6
2014-Sep-19 13:05 347 0 gusting 1 12.2
2014-Sep-19 12:50 064 0 gusting 2 12.8
2014-Sep-19 12:35 321 12.8
2014-Sep-19 12:20 321 12.8
2014-Sep-19 12:05 322 12.8
2014-Sep-19 11:50 047 1 gusting 6 15.6
2014-Sep-19 11:35 087 3 gusting 4 15.0
2014-Sep-19 11:20 044 15.0
2014-Sep-19 11:05 044 0 gusting 3 16.1
2014-Sep-19 10:50 075 1 gusting 4 16.1
2014-Sep-19 10:35 114 3 gusting 5 16.1
2014-Sep-19 10:20 087 1 gusting 2 16.1
2014-Sep-19 10:05 067 1 gusting 3 16.1
2014-Sep-19 09:50 086 1 gusting 3 16.7
2014-Sep-19 09:35 075 1 gusting 2 16.7
2014-Sep-19 09:20 084 1 gusting 4 17.2
2014-Sep-19 09:05 077 2 gusting 6 17.2
2014-Sep-19 08:50 084 2 gusting 5 17.8
2014-Sep-19 08:35 098 3 gusting 6 18.3
2014-Sep-19 08:20 084 2 gusting 7 18.9
2014-Sep-19 08:05 101 4 gusting 6 19.4